createdAt,value
2019-02-17T00:00:33.214Z,58.59
2019-02-17T00:03:02.584Z,58.73
2019-02-17T00:05:31.910Z,59.14
2019-02-17T00:08:02.229Z,58.90
2019-02-17T00:10:31.563Z,58.54
2019-02-17T00:13:01.021Z,58.82
2019-02-17T00:15:30.437Z,58.69
2019-02-17T00:18:00.411Z,58.74
2019-02-17T00:20:30.459Z,59.12
2019-02-17T00:23:00.756Z,59.53
2019-02-17T00:25:30.064Z,59.67
2019-02-17T00:28:00.237Z,59.43
2019-02-17T00:30:29.648Z,59.40
2019-02-17T00:32:58.980Z,59.84
2019-02-17T00:35:28.348Z,60.06
2019-02-17T00:37:57.900Z,59.84
2019-02-17T00:40:27.255Z,59.82
2019-02-17T00:42:56.608Z,59.80
2019-02-17T00:45:25.927Z,59.95
2019-02-17T00:47:56.283Z,60.14
2019-02-17T00:50:26.478Z,60.13
2019-02-17T00:52:57.339Z,60.29
2019-02-17T00:55:26.734Z,60.11
2019-02-17T00:57:56.987Z,59.94
2019-02-17T01:00:26.467Z,60.48
2019-02-17T01:02:55.785Z,60.37
2019-02-17T01:05:25.123Z,60.45
2019-02-17T01:07:54.524Z,60.56
2019-02-17T01:10:23.844Z,60.41
2019-02-17T01:12:53.201Z,60.47
2019-02-17T01:15:22.604Z,60.64
2019-02-17T01:17:51.924Z,60.56
2019-02-17T01:20:21.275Z,61.33
2019-02-17T01:22:50.720Z,61.07
2019-02-17T01:25:21.050Z,61.59
2019-02-17T01:27:50.564Z,61.07
2019-02-17T01:30:19.913Z,61.29
2019-02-17T01:32:49.267Z,61.14
2019-02-17T01:35:18.619Z,61.14
2019-02-17T01:37:48.001Z,61.15
2019-02-17T01:40:17.399Z,61.69
2019-02-17T01:42:46.764Z,61.77
2019-02-17T01:45:16.428Z,61.73
2019-02-17T01:47:46.625Z,61.70
2019-02-17T01:50:16.900Z,61.63
2019-02-17T01:52:46.272Z,61.31
2019-02-17T01:55:15.608Z,60.92
2019-02-17T01:57:44.933Z,61.46
2019-02-17T02:00:14.654Z,61.08
2019-02-17T02:02:45.015Z,61.22
2019-02-17T02:05:14.429Z,61.40
2019-02-17T02:07:43.749Z,61.45
2019-02-17T02:10:13.097Z,61.00
2019-02-17T02:12:42.473Z,60.90
2019-02-17T02:15:11.966Z,61.14
2019-02-17T02:17:41.329Z,61.45
2019-02-17T02:20:11.916Z,61.28
2019-02-17T02:22:41.272Z,61.79
2019-02-17T02:25:10.584Z,61.99
2019-02-17T02:27:39.955Z,62.24
2019-02-17T02:30:11.661Z,62.06
2019-02-17T02:32:41.062Z,62.46
2019-02-17T02:35:10.488Z,62.27
2019-02-17T02:37:39.896Z,62.11
2019-02-17T02:40:09.491Z,62.55
2019-02-17T02:42:38.815Z,62.44
2019-02-17T02:45:09.048Z,62.94
2019-02-17T02:47:38.715Z,62.44
2019-02-17T02:50:09.537Z,63.00
2019-02-17T02:52:38.998Z,62.42
2019-02-17T02:55:08.569Z,62.30
2019-02-17T02:57:37.940Z,62.49
2019-02-17T03:00:09.487Z,62.53
2019-02-17T03:02:38.915Z,62.38
2019-02-17T03:05:09.305Z,62.74
2019-02-17T03:07:38.662Z,62.85
2019-02-17T03:10:09.402Z,62.18
2019-02-17T03:12:38.741Z,62.17
2019-02-17T03:15:08.149Z,62.26
2019-02-17T03:17:37.483Z,61.97
2019-02-17T03:20:07.454Z,61.72
2019-02-17T03:22:36.796Z,61.54
2019-02-17T03:25:06.151Z,61.66
2019-02-17T03:27:38.016Z,62.02
2019-02-17T03:30:08.631Z,61.92
2019-02-17T03:32:38.055Z,62.17
2019-02-17T03:35:07.559Z,62.13
2019-02-17T03:37:36.864Z,61.80
2019-02-17T03:40:07.172Z,62.11
2019-02-17T03:42:36.456Z,62.33
2019-02-17T03:45:06.116Z,62.41
2019-02-17T03:47:35.506Z,61.98
2019-02-17T03:50:05.345Z,62.13
2019-02-17T03:52:34.691Z,61.79
2019-02-17T03:55:04.015Z,61.94
2019-02-17T03:57:33.385Z,62.20
2019-02-17T04:00:02.745Z,62.79
2019-02-17T04:02:32.062Z,62.59
2019-02-17T04:05:01.487Z,63.10
2019-02-17T04:07:30.787Z,62.75
2019-02-17T04:10:00.306Z,62.71
2019-02-17T04:12:29.468Z,63.07
2019-02-17T04:14:58.787Z,62.94
2019-02-17T04:17:28.620Z,62.82
2019-02-17T04:19:58.031Z,63.06
2019-02-17T04:22:27.383Z,62.60
2019-02-17T04:24:56.715Z,62.92
2019-02-17T04:27:26.064Z,62.90
2019-02-17T04:29:55.407Z,63.17
2019-02-17T04:32:24.791Z,62.94
2019-02-17T04:34:54.235Z,63.09
2019-02-17T04:37:24.489Z,62.67
2019-02-17T04:39:53.844Z,63.08
2019-02-17T04:42:23.136Z,62.88
2019-02-17T04:44:53.491Z,62.62
2019-02-17T04:47:22.825Z,62.64
2019-02-17T04:49:52.148Z,63.10
2019-02-17T04:52:21.450Z,63.12
2019-02-17T04:54:50.834Z,63.24
2019-02-17T04:57:20.686Z,62.96
2019-02-17T04:59:50.812Z,63.22
2019-02-17T05:02:20.184Z,63.46
2019-02-17T05:04:49.562Z,62.97
2019-02-17T05:07:18.896Z,63.07
2019-02-17T05:09:48.808Z,63.23
2019-02-17T05:12:18.242Z,63.35
2019-02-17T05:14:47.564Z,62.82
2019-02-17T05:17:16.849Z,62.58
2019-02-17T05:19:46.760Z,62.66
2019-02-17T05:22:16.051Z,62.52
2019-02-17T05:24:46.073Z,62.57
2019-02-17T05:27:15.395Z,62.68
2019-02-17T05:29:44.724Z,62.88
2019-02-17T05:32:14.056Z,62.87
2019-02-17T05:34:43.429Z,62.66
2019-02-17T05:37:12.780Z,62.84
2019-02-17T05:39:42.121Z,63.31
2019-02-17T05:42:11.636Z,63.23
2019-02-17T05:44:40.950Z,63.05
2019-02-17T05:47:10.250Z,62.84
2019-02-17T05:49:40.411Z,63.37
2019-02-17T05:52:09.839Z,63.16
2019-02-17T05:54:39.365Z,63.22
2019-02-17T05:57:08.687Z,62.91
2019-02-17T05:59:38.068Z,63.05
2019-02-17T06:02:08.015Z,62.90
2019-02-17T06:04:37.418Z,63.45
2019-02-17T06:07:06.699Z,63.46
2019-02-17T06:09:36.346Z,63.28
2019-02-17T06:12:05.724Z,63.33
2019-02-17T06:14:35.033Z,63.66
2019-02-17T06:17:04.961Z,63.31
2019-02-17T06:19:34.269Z,63.59
2019-02-17T06:22:03.608Z,63.18
2019-02-17T06:24:32.913Z,63.43
2019-02-17T06:27:02.255Z,63.67
2019-02-17T06:29:31.574Z,63.90
2019-02-17T06:32:02.412Z,63.77
2019-02-17T06:34:31.759Z,63.95
2019-02-17T06:37:01.160Z,64.19
2019-02-17T06:39:30.523Z,63.76
2019-02-17T06:41:59.916Z,64.00
2019-02-17T06:44:29.231Z,64.25
2019-02-17T06:47:01.149Z,63.88
2019-02-17T06:49:30.488Z,63.95
2019-02-17T06:51:59.959Z,64.04
2019-02-17T06:54:29.256Z,63.83
2019-02-17T06:57:06.163Z,63.93
2019-02-17T06:59:35.603Z,64.49
2019-02-17T07:02:04.935Z,64.04
2019-02-17T07:04:42.417Z,64.04
2019-02-17T07:07:12.789Z,64.80
2019-02-17T07:09:42.123Z,65.16
2019-02-17T07:12:11.453Z,64.76
2019-02-17T07:14:40.766Z,65.33
2019-02-17T07:17:11.005Z,64.88
2019-02-17T07:19:40.321Z,65.00
2019-02-17T07:22:09.699Z,64.74
2019-02-17T07:24:40.065Z,64.91
2019-02-17T07:27:09.528Z,65.12
2019-02-17T07:29:38.904Z,65.08
2019-02-17T07:32:08.220Z,64.91
2019-02-17T07:34:37.644Z,65.54
2019-02-17T07:37:06.969Z,65.36
2019-02-17T07:39:36.248Z,65.57
2019-02-17T07:42:06.348Z,65.24
2019-02-17T07:44:35.674Z,65.42
2019-02-17T07:47:04.973Z,65.33
2019-02-17T07:49:34.337Z,66.74
2019-02-17T07:52:03.639Z,66.58
2019-02-17T07:54:33.617Z,65.76
2019-02-17T07:57:03.037Z,65.84
2019-02-17T07:59:32.360Z,66.06
2019-02-17T08:02:02.747Z,65.55
2019-02-17T08:04:32.196Z,65.79
2019-02-17T08:07:01.563Z,65.42
2019-02-17T08:09:30.855Z,65.79
2019-02-17T08:12:00.802Z,65.46
2019-02-17T08:14:30.125Z,64.95
2019-02-17T08:16:59.412Z,65.03
2019-02-17T08:19:28.747Z,65.06
2019-02-17T08:21:58.040Z,64.92
2019-02-17T08:24:27.380Z,64.24
2019-02-17T08:26:56.764Z,64.11
2019-02-17T08:29:26.093Z,64.36
2019-02-17T08:31:56.378Z,64.03
2019-02-17T08:34:25.658Z,64.02
2019-02-17T08:36:55.057Z,63.89
2019-02-17T08:39:24.406Z,64.25
2019-02-17T08:41:54.010Z,63.96
2019-02-17T08:44:23.387Z,64.15
2019-02-17T08:46:52.796Z,64.11
2019-02-17T08:49:22.225Z,64.06
2019-02-17T08:51:51.608Z,64.28
2019-02-17T08:54:21.019Z,64.63
2019-02-17T08:56:50.632Z,64.15
2019-02-17T08:59:19.996Z,63.76
2019-02-17T09:01:49.749Z,63.83
2019-02-17T09:04:19.075Z,64.44
2019-02-17T09:06:48.480Z,64.01
2019-02-17T09:09:17.790Z,64.04
2019-02-17T09:11:47.672Z,63.67
2019-02-17T09:14:17.063Z,63.59
2019-02-17T09:16:46.399Z,62.96
2019-02-17T09:19:15.729Z,62.73
2019-02-17T09:21:45.037Z,62.88
2019-02-17T09:24:14.393Z,62.20
2019-02-17T09:26:43.747Z,62.10
2019-02-17T09:29:13.135Z,61.47
2019-02-17T09:31:42.470Z,62.06
2019-02-17T09:34:12.383Z,61.13
2019-02-17T09:36:41.681Z,61.32
2019-02-17T09:39:11.190Z,61.42
2019-02-17T09:41:40.509Z,60.91
2019-02-17T09:44:09.821Z,60.60
2019-02-17T09:46:39.232Z,60.79
2019-02-17T09:49:08.585Z,61.14
2019-02-17T09:51:37.984Z,61.23
2019-02-17T09:54:07.355Z,60.90
2019-02-17T09:56:36.712Z,61.21
2019-02-17T09:59:06.233Z,60.34
2019-02-17T10:01:35.667Z,60.30
2019-02-17T10:04:04.996Z,59.06
2019-02-17T10:06:34.403Z,59.02
2019-02-17T10:09:05.181Z,59.22
2019-02-17T10:11:35.072Z,58.95
2019-02-17T10:14:05.375Z,58.84
2019-02-17T10:16:34.765Z,58.34
2019-02-17T10:19:04.238Z,58.71
2019-02-17T10:21:33.686Z,58.76
2019-02-17T10:24:03.001Z,58.21
2019-02-17T10:26:32.323Z,58.57
2019-02-17T10:29:01.659Z,57.90
2019-02-17T10:31:31.048Z,58.50
2019-02-17T10:34:00.398Z,57.24
2019-02-17T10:36:29.727Z,58.58
2019-02-17T10:38:59.395Z,57.39
2019-02-17T10:41:28.782Z,57.50
2019-02-17T10:43:59.158Z,57.54
2019-02-17T10:46:28.489Z,57.43
2019-02-17T10:48:57.897Z,56.18
2019-02-17T10:51:27.278Z,56.16
2019-02-17T10:53:56.653Z,55.17
2019-02-17T10:56:25.966Z,55.74
2019-02-17T10:58:55.369Z,54.62
2019-02-17T11:01:24.737Z,54.70
2019-02-17T11:04:03.731Z,54.22
2019-02-17T11:06:33.580Z,53.72
2019-02-17T11:09:02.945Z,53.53
2019-02-17T11:11:32.851Z,52.90
2019-02-17T11:14:02.262Z,52.43
2019-02-17T11:16:31.565Z,52.76
2019-02-17T11:19:01.072Z,52.21
2019-02-17T11:21:30.453Z,51.48
2019-02-17T11:24:00.667Z,51.18
2019-02-17T11:26:30.003Z,51.52
2019-02-17T11:28:59.275Z,52.14
2019-02-17T11:31:28.575Z,50.90
2019-02-17T11:33:57.971Z,51.55
2019-02-17T11:36:27.411Z,51.45
2019-02-17T11:38:56.731Z,50.52
2019-02-17T11:41:26.055Z,49.87
2019-02-17T11:43:55.371Z,50.42
2019-02-17T11:46:25.302Z,49.06
2019-02-17T11:48:54.623Z,50.42
2019-02-17T11:51:23.964Z,48.49
2019-02-17T11:53:53.297Z,49.72
2019-02-17T11:56:22.693Z,48.82
2019-02-17T11:58:52.156Z,48.44
2019-02-17T12:01:21.580Z,48.34
2019-02-17T12:03:51.582Z,47.65
2019-02-17T12:06:21.110Z,47.47
2019-02-17T12:08:50.613Z,46.49
2019-02-17T12:11:19.951Z,45.91
2019-02-17T12:13:49.345Z,47.64
2019-02-17T12:16:19.558Z,46.65
2019-02-17T12:18:48.916Z,46.17
2019-02-17T12:21:57.436Z,46.62
2019-02-17T12:24:38.976Z,46.45
2019-02-17T12:27:13.521Z,45.95
2019-02-17T12:29:48.934Z,45.18
2019-02-17T12:32:18.355Z,44.82
2019-02-17T12:34:47.693Z,44.83
2019-02-17T12:37:17.094Z,44.53
2019-02-17T12:39:46.454Z,44.59
2019-02-17T12:42:15.808Z,44.91
2019-02-17T12:44:45.216Z,45.15
2019-02-17T12:47:14.741Z,45.38
2019-02-17T12:49:44.096Z,44.53
2019-02-17T12:52:13.479Z,43.98
2019-02-17T12:54:42.820Z,43.52
2019-02-17T12:57:12.712Z,44.38
2019-02-17T12:59:42.051Z,44.00
2019-02-17T13:02:11.440Z,43.64
2019-02-17T13:04:40.871Z,43.28
2019-02-17T13:07:11.275Z,42.94
2019-02-17T13:09:41.310Z,43.02
2019-02-17T13:12:10.844Z,43.49
2019-02-17T13:14:40.201Z,43.83
2019-02-17T13:17:09.507Z,43.50
2019-02-17T13:19:41.222Z,43.55
2019-02-17T13:22:08.331Z,43.45
2019-02-17T13:24:37.627Z,42.87
2019-02-17T13:27:06.928Z,42.97
2019-02-17T13:29:36.283Z,42.95
2019-02-17T13:32:05.617Z,41.66
2019-02-17T13:34:35.711Z,41.07
2019-02-17T13:37:05.041Z,40.38
2019-02-17T13:39:34.381Z,40.18
2019-02-17T13:42:03.747Z,39.86
2019-02-17T13:44:33.920Z,39.80
2019-02-17T13:47:03.290Z,38.94
2019-02-17T13:49:32.629Z,38.10
2019-02-17T13:52:01.996Z,38.63
2019-02-17T13:54:31.400Z,37.35
2019-02-17T13:57:00.700Z,37.90
2019-02-17T13:59:30.063Z,38.36
2019-02-17T14:02:00.321Z,37.48
2019-02-17T14:04:30.557Z,36.41
2019-02-17T14:07:00.912Z,35.91
2019-02-17T14:09:30.645Z,36.47
2019-02-17T14:12:00.070Z,37.37
2019-02-17T14:14:29.474Z,35.03
2019-02-17T14:16:59.004Z,35.63
2019-02-17T14:19:28.418Z,34.26
2019-02-17T14:21:57.816Z,34.77
2019-02-17T14:24:27.726Z,35.27
2019-02-17T14:26:57.056Z,35.53
2019-02-17T14:29:26.464Z,34.51
2019-02-17T14:31:55.874Z,34.40
2019-02-17T14:34:25.363Z,34.07
2019-02-17T14:36:54.849Z,34.31
2019-02-17T14:39:24.185Z,30.95
2019-02-17T14:41:53.546Z,29.80
2019-02-17T14:44:23.013Z,28.48
2019-02-17T14:46:52.436Z,24.27
2019-02-17T14:49:21.954Z,24.55
2019-02-17T14:51:51.345Z,16.78
2019-02-17T14:54:20.821Z,15.77
2019-02-17T14:56:50.233Z,13.75
2019-02-17T14:59:19.741Z,14.85
2019-02-17T15:01:49.195Z,12.45
2019-02-17T15:04:18.552Z,11.55
2019-02-17T15:06:48.014Z,10.57
2019-02-17T15:09:17.413Z,9.41
2019-02-17T15:11:46.914Z,9.81
2019-02-17T15:14:16.248Z,11.54
2019-02-17T15:16:45.605Z,11.79
2019-02-17T15:19:15.137Z,10.51
2019-02-17T15:21:44.462Z,10.35
2019-02-17T15:24:13.805Z,10.23
2019-02-17T15:26:43.361Z,12.52
2019-02-17T15:29:12.736Z,14.54
2019-02-17T15:31:42.088Z,16.27
2019-02-17T15:34:18.408Z,18.62
2019-02-17T15:36:40.801Z,20.03
2019-02-17T15:39:10.249Z,21.28
2019-02-17T15:41:39.625Z,22.43
2019-02-17T15:44:09.181Z,24.52
2019-02-17T15:46:38.585Z,25.63
2019-02-17T15:49:08.724Z,26.17
2019-02-17T15:51:38.193Z,27.82
2019-02-17T15:54:07.666Z,27.83
2019-02-17T15:56:37.038Z,28.98
2019-02-17T15:59:06.381Z,32.00
2019-02-17T16:01:35.775Z,32.11
2019-02-17T16:04:05.182Z,34.35
2019-02-17T16:06:34.563Z,34.04
2019-02-17T16:09:05.688Z,37.23
2019-02-17T16:11:35.031Z,37.25
2019-02-17T16:14:04.476Z,37.16
2019-02-17T16:16:34.011Z,37.78
2019-02-17T16:19:04.024Z,36.97
2019-02-17T16:21:33.367Z,37.93
2019-02-17T16:24:02.698Z,38.88
2019-02-17T16:26:32.600Z,37.91
2019-02-17T16:29:02.400Z,40.15
2019-02-17T16:31:31.947Z,39.17
2019-02-17T16:34:01.256Z,40.69
2019-02-17T16:36:30.540Z,41.12
2019-02-17T16:38:59.883Z,40.04
2019-02-17T16:41:29.203Z,41.42
2019-02-17T16:43:58.699Z,42.33
2019-02-17T16:46:28.092Z,42.63
2019-02-17T16:48:57.423Z,42.94
2019-02-17T16:51:26.793Z,42.67
2019-02-17T16:53:56.143Z,43.17
2019-02-17T16:56:25.540Z,43.70
2019-02-17T16:58:55.543Z,44.69
2019-02-17T17:01:25.759Z,44.06
2019-02-17T17:03:56.695Z,44.99
2019-02-17T17:06:26.092Z,45.35
2019-02-17T17:08:55.456Z,45.97
2019-02-17T17:11:24.784Z,45.91
2019-02-17T17:13:54.206Z,46.42
2019-02-17T17:16:24.240Z,46.42
2019-02-17T17:18:54.277Z,47.30
2019-02-17T17:21:23.552Z,46.33
2019-02-17T17:23:53.091Z,47.44
2019-02-17T17:26:22.517Z,47.90
2019-02-17T17:28:51.831Z,47.65
2019-02-17T17:31:21.196Z,48.20
2019-02-17T17:33:50.625Z,48.23
2019-02-17T17:36:20.020Z,48.41
2019-02-17T17:38:49.365Z,48.41
2019-02-17T17:41:18.717Z,47.91
2019-02-17T17:43:48.267Z,47.78
2019-02-17T17:46:17.620Z,48.72
2019-02-17T17:48:46.936Z,47.40
2019-02-17T17:51:16.929Z,48.23
2019-02-17T17:53:46.264Z,48.02
2019-02-17T17:56:15.706Z,48.36
2019-02-17T17:58:45.580Z,47.76
2019-02-17T18:01:14.991Z,48.01
2019-02-17T18:03:44.311Z,47.66
2019-02-17T18:06:14.281Z,48.07
2019-02-17T18:08:43.664Z,47.86
2019-02-17T18:11:14.027Z,47.78
2019-02-17T18:13:43.995Z,47.96
2019-02-17T18:16:13.471Z,47.53
2019-02-17T18:18:42.875Z,48.25
2019-02-17T18:21:12.489Z,46.91
2019-02-17T18:23:42.472Z,47.84
2019-02-17T18:26:11.941Z,48.17
2019-02-17T18:28:41.284Z,47.83
2019-02-17T18:31:10.692Z,47.37
2019-02-17T18:33:40.143Z,47.25
2019-02-17T18:36:09.444Z,47.43
2019-02-17T18:38:38.826Z,48.13
2019-02-17T18:41:08.147Z,47.66
2019-02-17T18:43:37.428Z,47.91
2019-02-17T18:46:06.887Z,47.91
2019-02-17T18:48:36.692Z,47.28
2019-02-17T18:51:06.596Z,47.83
2019-02-17T18:53:35.944Z,47.79
2019-02-17T18:56:05.679Z,47.21
2019-02-17T18:58:35.956Z,47.46
2019-02-17T19:01:05.390Z,47.64
2019-02-17T19:03:35.331Z,47.86
2019-02-17T19:06:04.763Z,47.98
2019-02-17T19:08:34.103Z,47.72
2019-02-17T19:11:04.532Z,48.05
2019-02-17T19:13:33.956Z,48.41
2019-02-17T19:16:03.335Z,48.33
2019-02-17T19:18:33.339Z,47.72
2019-02-17T19:21:02.627Z,48.15
2019-02-17T19:23:32.272Z,48.29
2019-02-17T19:26:01.684Z,48.29
2019-02-17T19:28:31.067Z,48.39
2019-02-17T19:31:00.402Z,48.54
2019-02-17T19:33:29.711Z,48.28
2019-02-17T19:36:00.267Z,48.31
2019-02-17T19:38:29.632Z,48.29
2019-02-17T19:41:01.579Z,48.41
2019-02-17T19:43:29.776Z,48.87
2019-02-17T19:45:59.184Z,49.27
2019-02-17T19:48:29.451Z,49.25
2019-02-17T19:50:58.835Z,49.27
2019-02-17T19:53:28.192Z,49.31
2019-02-17T19:55:57.979Z,49.19
2019-02-17T19:58:27.384Z,49.04
2019-02-17T20:00:56.715Z,49.36
2019-02-17T20:03:30.518Z,48.61
2019-02-17T20:06:01.629Z,49.26
2019-02-17T20:08:31.028Z,49.15
2019-02-17T20:11:01.097Z,49.46
2019-02-17T20:13:30.498Z,49.71
2019-02-17T20:15:59.895Z,49.32
2019-02-17T20:18:29.299Z,49.82
2019-02-17T20:20:58.562Z,49.06
2019-02-17T20:23:27.940Z,49.61
2019-02-17T20:25:58.062Z,49.20
2019-02-17T20:28:40.659Z,49.25
2019-02-17T20:30:56.130Z,49.03
2019-02-17T20:33:25.406Z,49.00
2019-02-17T20:36:02.461Z,48.33
2019-02-17T20:38:24.867Z,48.57
2019-02-17T20:40:54.125Z,47.90
2019-02-17T20:43:23.642Z,48.11
2019-02-17T20:45:53.772Z,47.94
2019-02-17T20:48:23.018Z,48.26
2019-02-17T20:50:52.549Z,48.17
2019-02-17T20:53:21.875Z,48.07
2019-02-17T20:55:51.311Z,48.25
2019-02-17T20:58:20.717Z,48.34
2019-02-17T21:00:50.068Z,48.24
2019-02-17T21:03:19.574Z,48.78
2019-02-17T21:05:49.948Z,48.90
2019-02-17T21:08:19.549Z,48.83
2019-02-17T21:10:48.867Z,49.55
2019-02-17T21:13:18.248Z,49.02
2019-02-17T21:15:47.627Z,49.03
2019-02-17T21:18:16.944Z,49.23
2019-02-17T21:20:46.307Z,49.24
2019-02-17T21:23:15.650Z,49.09
2019-02-17T21:25:44.972Z,49.59
2019-02-17T21:28:14.871Z,49.15
2019-02-17T21:30:44.211Z,49.81
2019-02-17T21:33:14.172Z,49.42
2019-02-17T21:35:43.512Z,49.83
2019-02-17T21:38:12.845Z,50.04
2019-02-17T21:40:42.128Z,49.81
2019-02-17T21:43:11.507Z,50.63
2019-02-17T21:45:40.808Z,49.91
2019-02-17T21:48:10.181Z,50.12
2019-02-17T21:50:41.622Z,50.64
2019-02-17T21:53:20.335Z,50.22
2019-02-17T21:55:40.386Z,50.51
2019-02-17T21:58:09.671Z,50.92
2019-02-17T22:00:38.995Z,50.94
2019-02-17T22:03:08.403Z,50.76
2019-02-17T22:05:37.783Z,51.39
2019-02-17T22:08:07.277Z,51.29
2019-02-17T22:10:36.701Z,51.66
2019-02-17T22:13:06.082Z,51.87
2019-02-17T22:15:35.775Z,52.08
2019-02-17T22:18:05.116Z,52.21
2019-02-17T22:20:34.512Z,51.31
2019-02-17T22:23:03.928Z,51.58
2019-02-17T22:25:33.325Z,52.21
2019-02-17T22:28:02.749Z,51.98
2019-02-17T22:30:32.111Z,51.62
2019-02-17T22:33:01.591Z,52.46
2019-02-17T22:35:30.945Z,52.38
2019-02-17T22:38:00.297Z,52.81
2019-02-17T22:40:30.053Z,52.21
2019-02-17T22:42:59.413Z,52.00
2019-02-17T22:45:28.700Z,52.81
2019-02-17T22:47:58.044Z,52.84
2019-02-17T22:50:27.828Z,53.18
2019-02-17T22:52:57.860Z,53.18
2019-02-17T22:55:28.226Z,53.37
2019-02-17T22:57:59.761Z,53.43
2019-02-17T23:00:43.370Z,53.23
2019-02-17T23:03:14.383Z,53.77
2019-02-17T23:05:43.785Z,53.72
2019-02-17T23:08:13.888Z,53.44
2019-02-17T23:10:43.335Z,53.69
2019-02-17T23:13:12.698Z,53.99
2019-02-17T23:15:42.032Z,54.25
2019-02-17T23:18:11.407Z,54.27
2019-02-17T23:20:40.791Z,54.38
2019-02-17T23:23:10.112Z,54.36
2019-02-17T23:25:39.397Z,54.58
2019-02-17T23:28:08.749Z,54.22
2019-02-17T23:30:38.169Z,54.53
2019-02-17T23:33:07.528Z,54.66
2019-02-17T23:35:36.842Z,54.86
2019-02-17T23:38:07.168Z,54.82
2019-02-17T23:40:36.531Z,54.51
2019-02-17T23:43:05.820Z,54.77
2019-02-17T23:45:35.149Z,54.83
2019-02-17T23:48:04.481Z,54.13
2019-02-17T23:50:33.846Z,54.88
2019-02-17T23:53:03.773Z,54.72
2019-02-17T23:55:33.115Z,54.80
2019-02-17T23:58:02.432Z,54.66
